createdAt,value
2022-12-06T00:04:34.952Z,980.86
2022-12-06T00:10:06.670Z,980.95
2022-12-06T00:15:38.264Z,981.07
2022-12-06T00:21:09.993Z,981.04
2022-12-06T00:26:41.666Z,980.83
2022-12-06T00:32:20.525Z,980.65
2022-12-06T00:37:45.185Z,980.55
2022-12-06T00:43:16.841Z,980.33
2022-12-06T00:48:48.808Z,980.29
2022-12-06T00:54:24.686Z,980.12
2022-12-06T00:59:56.296Z,980.02
2022-12-06T01:05:28.160Z,979.9
2022-12-06T01:10:59.716Z,979.9
2022-12-06T01:16:31.636Z,980.1
2022-12-06T01:22:03.189Z,980.07
2022-12-06T01:27:34.981Z,980.13
2022-12-06T01:33:06.596Z,980.24
2022-12-06T01:38:38.390Z,980.23
2022-12-06T01:44:10.218Z,980.13
2022-12-06T01:49:41.841Z,980.14
2022-12-06T01:55:17.870Z,980.07
2022-12-06T02:00:49.700Z,980.21
2022-12-06T02:06:22.594Z,980.18
2022-12-06T02:11:53.276Z,980.16
2022-12-06T02:17:24.842Z,980.2
2022-12-06T02:22:56.596Z,980.38
2022-12-06T02:28:28.351Z,980.28
2022-12-06T02:34:00.133Z,980.33
2022-12-06T02:39:31.825Z,980.19
2022-12-06T02:45:03.550Z,980.34
2022-12-06T02:50:35.325Z,980.32
2022-12-06T02:56:11.377Z,980.22
2022-12-06T03:01:43.489Z,980.36
2022-12-06T03:07:14.798Z,980.39
2022-12-06T03:12:46.737Z,980.44
2022-12-06T03:18:18.493Z,980.26
2022-12-06T03:23:50.010Z,980.26
2022-12-06T03:29:21.660Z,980.15
2022-12-06T03:34:53.476Z,980.15
2022-12-06T03:40:25.129Z,980.16
2022-12-06T03:45:57.268Z,980.12
2022-12-06T03:51:28.693Z,980.08
2022-12-06T03:57:06.719Z,980.16
2022-12-06T04:02:38.340Z,980.09
2022-12-06T04:08:10.237Z,979.87
2022-12-06T04:13:41.961Z,979.88
2022-12-06T04:19:13.651Z,979.88
2022-12-06T04:24:45.242Z,979.83
2022-12-06T04:30:16.859Z,979.98
2022-12-06T04:35:48.892Z,979.69
2022-12-06T04:41:20.529Z,979.71
2022-12-06T04:46:52.624Z,979.79
2022-12-06T04:52:24.247Z,979.75
2022-12-06T04:58:00.069Z,979.65
2022-12-06T05:03:32.077Z,979.63
2022-12-06T05:09:03.597Z,979.7
2022-12-06T05:14:35.281Z,979.7
2022-12-06T05:20:07.021Z,979.69
2022-12-06T05:25:38.749Z,979.89
2022-12-06T05:31:10.651Z,979.72
2022-12-06T05:36:42.240Z,979.68
2022-12-06T05:42:23.018Z,979.77
2022-12-06T05:47:45.952Z,979.75
2022-12-06T05:53:17.209Z,979.82
2022-12-06T05:58:53.382Z,979.88
2022-12-06T06:04:24.981Z,979.85
2022-12-06T06:09:57.152Z,980.07
2022-12-06T06:15:28.629Z,979.95
2022-12-06T06:21:00.361Z,979.67
2022-12-06T06:26:32.130Z,979.85
2022-12-06T06:32:03.882Z,979.8
2022-12-06T06:37:35.372Z,979.79
2022-12-06T06:43:08.126Z,979.84
2022-12-06T06:48:39.165Z,979.81
2022-12-06T06:54:10.666Z,979.92
2022-12-06T06:59:46.675Z,979.68
2022-12-06T07:05:18.903Z,979.69
2022-12-06T07:10:50.330Z,979.79
2022-12-06T07:16:22.416Z,979.52
2022-12-06T07:21:53.651Z,979.68
2022-12-06T07:27:25.570Z,979.87
2022-12-06T07:32:57.293Z,979.75
2022-12-06T07:38:28.851Z,979.61
2022-12-06T07:44:00.747Z,979.88
2022-12-06T07:49:32.583Z,979.96
2022-12-06T07:55:04.110Z,979.6
2022-12-06T08:00:40.251Z,979.37
2022-12-06T08:06:12.041Z,979.34
2022-12-06T08:11:43.614Z,979.39
2022-12-06T08:17:15.423Z,979.69
2022-12-06T08:22:47.461Z,979.67
2022-12-06T08:28:18.809Z,979.9
2022-12-06T08:33:50.561Z,979.25
2022-12-06T08:39:22.820Z,979.31
2022-12-06T08:44:54.067Z,979.0
2022-12-06T08:50:25.605Z,979.22
2022-12-06T08:56:03.620Z,979.52
2022-12-06T09:01:40.220Z,979.66
2022-12-06T09:07:12.374Z,979.56
2022-12-06T09:12:37.001Z,979.57
2022-12-06T09:18:08.760Z,979.6
2022-12-06T09:23:40.492Z,979.78
2022-12-06T09:29:15.401Z,979.53
2022-12-06T09:34:44.217Z,979.11
2022-12-06T09:40:15.926Z,978.9
2022-12-06T09:45:47.414Z,978.73
2022-12-06T09:51:19.837Z,978.83
2022-12-06T09:56:50.804Z,978.86
2022-12-06T10:02:29.169Z,979.52
2022-12-06T10:08:01.382Z,979.0
2022-12-06T10:13:32.401Z,978.89
2022-12-06T10:19:04.792Z,978.4
2022-12-06T10:24:35.837Z,978.67
2022-12-06T10:30:07.712Z,979.23
2022-12-06T10:35:39.256Z,979.11
2022-12-06T10:41:11.152Z,978.67
2022-12-06T10:46:43.820Z,978.8
2022-12-06T10:52:14.404Z,978.94
2022-12-06T10:57:46.012Z,979.13
2022-12-06T11:03:23.104Z,978.52
2022-12-06T11:08:54.108Z,978.8
2022-12-06T11:14:25.685Z,979.02
2022-12-06T11:19:58.309Z,978.99
2022-12-06T11:25:29.420Z,978.89
2022-12-06T11:31:01.296Z,979.64
2022-12-06T11:36:33.121Z,979.09
2022-12-06T11:42:04.669Z,979.31
2022-12-06T11:47:36.244Z,978.89
2022-12-06T11:53:08.908Z,978.5
2022-12-06T11:58:40.234Z,978.68
2022-12-06T12:04:19.036Z,978.76
2022-12-06T12:09:50.784Z,978.37
2022-12-06T12:15:21.840Z,978.23
2022-12-06T12:20:54.249Z,978.64
2022-12-06T12:26:25.051Z,978.41
2022-12-06T12:31:57.111Z,978.54
2022-12-06T12:37:28.949Z,978.56
2022-12-06T12:43:00.241Z,978.28
2022-12-06T12:48:31.944Z,978.5
2022-12-06T12:54:03.757Z,978.7
2022-12-06T12:59:35.620Z,979.2
2022-12-06T13:05:36.326Z,978.5
2022-12-06T13:10:43.294Z,978.74
2022-12-06T13:16:15.340Z,978.6
2022-12-06T13:21:46.822Z,978.77
2022-12-06T13:27:18.382Z,978.49
2022-12-06T13:32:50.171Z,979.04
2022-12-06T13:38:27.580Z,978.89
2022-12-06T13:43:53.570Z,978.91
2022-12-06T13:49:25.393Z,978.41
2022-12-06T13:54:57.160Z,978.89
2022-12-06T14:00:29.225Z,979.16
2022-12-06T14:06:16.292Z,979.08
2022-12-06T14:11:40.894Z,978.86
2022-12-06T14:17:08.662Z,978.91
2022-12-06T14:22:40.110Z,979.3
2022-12-06T14:28:11.754Z,979.21
2022-12-06T14:33:43.762Z,979.27
2022-12-06T14:39:15.277Z,979.13
2022-12-06T14:44:47.063Z,979.65
2022-12-06T14:50:18.674Z,979.84
2022-12-06T14:55:50.533Z,979.2
2022-12-06T15:01:22.263Z,979.67
2022-12-06T15:06:58.367Z,979.47
2022-12-06T15:12:30.020Z,979.67
2022-12-06T15:18:01.850Z,980.19
2022-12-06T15:23:33.555Z,979.91
2022-12-06T15:29:05.582Z,980.24
2022-12-06T15:34:36.998Z,980.03
2022-12-06T15:40:08.880Z,979.72
2022-12-06T15:45:40.403Z,979.76
2022-12-06T15:51:21.327Z,980.1
2022-12-06T15:56:43.747Z,980.36
2022-12-06T16:02:16.406Z,979.68
2022-12-06T16:07:53.946Z,979.74
2022-12-06T16:13:25.510Z,980.0
2022-12-06T16:18:57.261Z,980.42
2022-12-06T16:24:28.861Z,980.33
2022-12-06T16:30:01.173Z,979.61
2022-12-06T16:35:32.457Z,979.86
2022-12-06T16:41:06.060Z,980.1
2022-12-06T16:46:36.523Z,979.98
2022-12-06T16:52:07.563Z,979.92
2022-12-06T16:57:39.436Z,980.08
2022-12-06T17:03:11.054Z,980.21
2022-12-06T17:08:47.901Z,980.55
2022-12-06T17:14:18.927Z,980.51
2022-12-06T17:19:51.053Z,980.55
2022-12-06T17:25:22.325Z,980.38
2022-12-06T17:30:54.135Z,980.09
2022-12-06T17:36:26.523Z,980.11
2022-12-06T17:41:58.109Z,980.07
2022-12-06T17:47:29.365Z,979.84
2022-12-06T17:53:01.032Z,980.06
2022-12-06T17:58:32.751Z,980.11
2022-12-06T18:04:05.246Z,980.11
2022-12-06T18:09:41.295Z,980.2
2022-12-06T18:15:13.302Z,979.69
2022-12-06T18:20:44.504Z,980.34
2022-12-06T18:26:16.439Z,980.6
2022-12-06T18:31:48.295Z,980.68
2022-12-06T18:37:20.752Z,980.8
2022-12-06T18:42:52.587Z,980.52
2022-12-06T18:48:24.315Z,980.43
2022-12-06T18:53:55.820Z,980.65
2022-12-06T18:59:28.865Z,980.66
2022-12-06T19:05:01.026Z,980.47
2022-12-06T19:10:39.509Z,980.53
2022-12-06T19:16:11.313Z,980.42
2022-12-06T19:21:42.816Z,980.28
2022-12-06T19:27:15.258Z,980.33
2022-12-06T19:32:46.408Z,980.56
2022-12-06T19:38:18.049Z,980.58
2022-12-06T19:43:49.748Z,980.24
2022-12-06T19:49:21.606Z,980.13
2022-12-06T19:54:53.337Z,980.28
2022-12-06T20:00:25.202Z,980.27
2022-12-06T20:05:56.969Z,979.98
2022-12-06T20:11:32.844Z,980.32
2022-12-06T20:17:04.448Z,979.9
2022-12-06T20:22:36.068Z,980.2
2022-12-06T20:28:14.486Z,979.97
2022-12-06T20:33:39.648Z,979.58
2022-12-06T20:39:11.423Z,979.59
2022-12-06T20:44:43.324Z,979.57
2022-12-06T20:50:14.727Z,979.43
2022-12-06T20:55:46.444Z,979.27
2022-12-06T21:01:18.440Z,979.52
2022-12-06T21:06:49.684Z,979.41
2022-12-06T21:12:27.289Z,979.99
2022-12-06T21:17:57.825Z,979.11
2022-12-06T21:23:29.322Z,979.41
2022-12-06T21:29:01.110Z,979.53
2022-12-06T21:34:33.009Z,979.45
2022-12-06T21:40:05.419Z,979.36
2022-12-06T21:45:36.314Z,979.64
2022-12-06T21:51:08.077Z,979.51
2022-12-06T21:56:40.207Z,979.22
2022-12-06T22:02:12.147Z,979.79
2022-12-06T22:07:44.001Z,979.22
2022-12-06T22:13:19.589Z,979.91
2022-12-06T22:18:51.241Z,979.73
2022-12-06T22:24:23.108Z,979.9
2022-12-06T22:29:54.728Z,979.51
2022-12-06T22:35:26.615Z,979.38
2022-12-06T22:40:58.201Z,979.8
2022-12-06T22:46:30.192Z,979.97
2022-12-06T22:52:01.785Z,979.62
2022-12-06T22:57:33.482Z,979.32
2022-12-06T23:03:05.333Z,979.45
2022-12-06T23:08:37.070Z,979.5
2022-12-06T23:14:12.996Z,979.68
2022-12-06T23:19:44.584Z,979.81
2022-12-06T23:25:16.508Z,979.89
2022-12-06T23:30:48.049Z,979.5
2022-12-06T23:36:19.987Z,979.78
2022-12-06T23:41:51.677Z,979.6
2022-12-06T23:47:23.212Z,979.74
2022-12-06T23:52:54.840Z,979.44
2022-12-06T23:58:26.629Z,978.98
